sensor_id;sensor_type;location;lat;lon;timestamp;P1;durP1;ratioP1;P2;durP2;ratioP2
19364;SDS011;9818;48.382;10.850;2023-07-22T00:01:53;2.23;;;2.03;;
19364;SDS011;9818;48.382;10.850;2023-07-22T00:04:22;2.20;;;1.97;;
19364;SDS011;9818;48.382;10.850;2023-07-22T00:06:50;2.63;;;2.13;;
19364;SDS011;9818;48.382;10.850;2023-07-22T00:09:19;1.90;;;1.70;;
19364;SDS011;9818;48.382;10.850;2023-07-22T00:11:49;2.13;;;1.93;;
19364;SDS011;9818;48.382;10.850;2023-07-22T00:14:18;2.27;;;2.00;;
19364;SDS011;9818;48.382;10.850;2023-07-22T00:16:46;2.00;;;1.80;;
19364;SDS011;9818;48.382;10.850;2023-07-22T00:19:17;2.00;;;1.73;;
19364;SDS011;9818;48.382;10.850;2023-07-22T00:21:46;3.20;;;2.07;;
19364;SDS011;9818;48.382;10.850;2023-07-22T00:24:17;2.63;;;2.10;;
19364;SDS011;9818;48.382;10.850;2023-07-22T00:26:47;2.43;;;2.20;;
19364;SDS011;9818;48.382;10.850;2023-07-22T00:29:16;3.30;;;2.30;;
19364;SDS011;9818;48.382;10.850;2023-07-22T00:31:45;2.70;;;2.20;;
19364;SDS011;9818;48.382;10.850;2023-07-22T00:34:14;3.30;;;2.27;;
19364;SDS011;9818;48.382;10.850;2023-07-22T00:36:45;3.30;;;2.20;;
19364;SDS011;9818;48.382;10.850;2023-07-22T00:39:14;2.47;;;2.23;;
19364;SDS011;9818;48.382;10.850;2023-07-22T00:41:43;2.97;;;2.17;;
19364;SDS011;9818;48.382;10.850;2023-07-22T00:44:11;2.77;;;2.30;;
19364;SDS011;9818;48.382;10.850;2023-07-22T00:46:40;3.43;;;2.27;;
19364;SDS011;9818;48.382;10.850;2023-07-22T00:49:09;2.57;;;2.37;;
19364;SDS011;9818;48.382;10.850;2023-07-22T00:51:39;3.63;;;2.13;;
19364;SDS011;9818;48.382;10.850;2023-07-22T00:54:10;3.90;;;2.30;;
19364;SDS011;9818;48.382;10.850;2023-07-22T00:56:39;3.13;;;2.30;;
19364;SDS011;9818;48.382;10.850;2023-07-22T00:59:08;3.47;;;2.33;;
19364;SDS011;9818;48.382;10.850;2023-07-22T01:01:37;2.30;;;2.10;;
19364;SDS011;9818;48.382;10.850;2023-07-22T01:04:06;3.50;;;2.03;;
19364;SDS011;9818;48.382;10.850;2023-07-22T01:06:35;3.03;;;2.57;;
19364;SDS011;9818;48.382;10.850;2023-07-22T01:09:05;2.23;;;2.03;;
19364;SDS011;9818;48.382;10.850;2023-07-22T01:11:37;2.47;;;2.27;;
19364;SDS011;9818;48.382;10.850;2023-07-22T01:14:06;2.93;;;1.97;;
19364;SDS011;9818;48.382;10.850;2023-07-22T01:16:34;3.00;;;2.07;;
19364;SDS011;9818;48.382;10.850;2023-07-22T01:19:04;2.63;;;2.40;;
19364;SDS011;9818;48.382;10.850;2023-07-22T01:21:33;2.67;;;2.30;;
19364;SDS011;9818;48.382;10.850;2023-07-22T01:24:05;3.50;;;2.50;;
19364;SDS011;9818;48.382;10.850;2023-07-22T01:26:34;3.23;;;2.57;;
19364;SDS011;9818;48.382;10.850;2023-07-22T01:29:03;4.47;;;2.20;;
19364;SDS011;9818;48.382;10.850;2023-07-22T01:31:34;2.40;;;2.10;;
19364;SDS011;9818;48.382;10.850;2023-07-22T01:34:03;2.60;;;2.10;;
19364;SDS011;9818;48.382;10.850;2023-07-22T01:36:32;2.93;;;2.10;;
19364;SDS011;9818;48.382;10.850;2023-07-22T01:39:00;2.23;;;2.03;;
19364;SDS011;9818;48.382;10.850;2023-07-22T01:41:33;2.90;;;2.30;;
19364;SDS011;9818;48.382;10.850;2023-07-22T01:44:02;3.10;;;2.10;;
19364;SDS011;9818;48.382;10.850;2023-07-22T01:46:31;3.17;;;2.57;;
19364;SDS011;9818;48.382;10.850;2023-07-22T01:49:00;3.30;;;2.37;;
19364;SDS011;9818;48.382;10.850;2023-07-22T01:51:30;2.90;;;2.17;;
19364;SDS011;9818;48.382;10.850;2023-07-22T01:53:58;2.70;;;2.23;;
19364;SDS011;9818;48.382;10.850;2023-07-22T01:56:27;4.00;;;2.90;;
19364;SDS011;9818;48.382;10.850;2023-07-22T01:58:58;4.87;;;2.70;;
19364;SDS011;9818;48.382;10.850;2023-07-22T02:01:27;3.03;;;2.73;;
19364;SDS011;9818;48.382;10.850;2023-07-22T02:03:56;4.40;;;2.30;;
19364;SDS011;9818;48.382;10.850;2023-07-22T02:06:24;2.60;;;2.23;;
19364;SDS011;9818;48.382;10.850;2023-07-22T02:08:54;2.80;;;2.60;;
19364;SDS011;9818;48.382;10.850;2023-07-22T02:11:22;3.23;;;2.57;;
19364;SDS011;9818;48.382;10.850;2023-07-22T02:13:51;5.10;;;3.17;;
19364;SDS011;9818;48.382;10.850;2023-07-22T02:16:22;3.87;;;2.50;;
19364;SDS011;9818;48.382;10.850;2023-07-22T02:18:51;3.40;;;2.67;;
19364;SDS011;9818;48.382;10.850;2023-07-22T02:21:19;5.17;;;2.90;;
19364;SDS011;9818;48.382;10.850;2023-07-22T02:23:48;3.43;;;3.00;;
19364;SDS011;9818;48.382;10.850;2023-07-22T02:26:17;3.53;;;2.90;;
19364;SDS011;9818;48.382;10.850;2023-07-22T02:28:45;3.70;;;2.87;;
19364;SDS011;9818;48.382;10.850;2023-07-22T02:31:14;3.27;;;2.90;;
19364;SDS011;9818;48.382;10.850;2023-07-22T02:33:45;3.73;;;3.10;;
19364;SDS011;9818;48.382;10.850;2023-07-22T02:36:14;5.40;;;3.33;;
19364;SDS011;9818;48.382;10.850;2023-07-22T02:38:43;3.63;;;3.00;;
19364;SDS011;9818;48.382;10.850;2023-07-22T02:41:12;3.67;;;2.90;;
19364;SDS011;9818;48.382;10.850;2023-07-22T02:43:40;3.50;;;2.77;;
19364;SDS011;9818;48.382;10.850;2023-07-22T02:46:09;4.00;;;3.20;;
19364;SDS011;9818;48.382;10.850;2023-07-22T02:48:37;3.40;;;3.00;;
19364;SDS011;9818;48.382;10.850;2023-07-22T02:51:09;5.33;;;2.53;;
19364;SDS011;9818;48.382;10.850;2023-07-22T02:53:38;4.43;;;3.37;;
19364;SDS011;9818;48.382;10.850;2023-07-22T02:56:07;4.23;;;2.93;;
19364;SDS011;9818;48.382;10.850;2023-07-22T02:58:36;4.03;;;2.97;;
19364;SDS011;9818;48.382;10.850;2023-07-22T03:01:07;4.00;;;2.97;;
19364;SDS011;9818;48.382;10.850;2023-07-22T03:03:36;6.03;;;3.40;;
19364;SDS011;9818;48.382;10.850;2023-07-22T03:06:05;4.97;;;3.57;;
19364;SDS011;9818;48.382;10.850;2023-07-22T03:08:37;4.53;;;3.37;;
19364;SDS011;9818;48.382;10.850;2023-07-22T03:11:06;5.60;;;4.10;;
19364;SDS011;9818;48.382;10.850;2023-07-22T03:13:34;4.03;;;3.50;;
19364;SDS011;9818;48.382;10.850;2023-07-22T03:16:03;5.87;;;3.83;;
19364;SDS011;9818;48.382;10.850;2023-07-22T03:18:33;4.33;;;3.80;;
19364;SDS011;9818;48.382;10.850;2023-07-22T03:21:04;4.13;;;3.40;;
19364;SDS011;9818;48.382;10.850;2023-07-22T03:23:36;6.47;;;3.83;;
19364;SDS011;9818;48.382;10.850;2023-07-22T03:26:05;5.70;;;3.60;;
19364;SDS011;9818;48.382;10.850;2023-07-22T03:28:34;5.57;;;3.70;;
19364;SDS011;9818;48.382;10.850;2023-07-22T03:31:02;3.57;;;3.20;;
19364;SDS011;9818;48.382;10.850;2023-07-22T03:33:31;5.77;;;3.70;;
19364;SDS011;9818;48.382;10.850;2023-07-22T03:36:00;4.00;;;3.50;;
19364;SDS011;9818;48.382;10.850;2023-07-22T03:38:29;6.37;;;3.87;;
19364;SDS011;9818;48.382;10.850;2023-07-22T03:41:00;6.73;;;3.93;;
19364;SDS011;9818;48.382;10.850;2023-07-22T03:43:29;4.40;;;3.70;;
19364;SDS011;9818;48.382;10.850;2023-07-22T03:45:57;5.50;;;3.97;;
19364;SDS011;9818;48.382;10.850;2023-07-22T03:48:26;5.47;;;3.80;;
19364;SDS011;9818;48.382;10.850;2023-07-22T03:50:55;5.10;;;3.43;;
19364;SDS011;9818;48.382;10.850;2023-07-22T03:53:23;4.20;;;3.77;;
19364;SDS011;9818;48.382;10.850;2023-07-22T03:55:52;7.27;;;4.30;;
19364;SDS011;9818;48.382;10.850;2023-07-22T03:58:23;4.70;;;3.53;;
19364;SDS011;9818;48.382;10.850;2023-07-22T04:00:52;4.80;;;3.90;;
19364;SDS011;9818;48.382;10.850;2023-07-22T04:03:20;6.80;;;3.93;;
19364;SDS011;9818;48.382;10.850;2023-07-22T04:05:55;6.23;;;3.60;;
19364;SDS011;9818;48.382;10.850;2023-07-22T04:08:24;4.30;;;3.90;;
19364;SDS011;9818;48.382;10.850;2023-07-22T04:10:53;5.83;;;4.00;;
19364;SDS011;9818;48.382;10.850;2023-07-22T04:13:25;6.77;;;4.40;;
19364;SDS011;9818;48.382;10.850;2023-07-22T04:15:54;5.83;;;3.90;;
19364;SDS011;9818;48.382;10.850;2023-07-22T04:18:22;6.10;;;4.43;;
19364;SDS011;9818;48.382;10.850;2023-07-22T04:20:55;6.80;;;4.20;;
19364;SDS011;9818;48.382;10.850;2023-07-22T04:23:24;5.27;;;3.93;;
19364;SDS011;9818;48.382;10.850;2023-07-22T04:25:53;5.53;;;4.33;;
19364;SDS011;9818;48.382;10.850;2023-07-22T04:28:25;6.47;;;4.10;;
19364;SDS011;9818;48.382;10.850;2023-07-22T04:30:57;4.90;;;3.83;;
19364;SDS011;9818;48.382;10.850;2023-07-22T04:33:26;6.60;;;4.30;;
19364;SDS011;9818;48.382;10.850;2023-07-22T04:35:57;5.93;;;3.97;;
19364;SDS011;9818;48.382;10.850;2023-07-22T04:38:26;4.63;;;3.63;;
19364;SDS011;9818;48.382;10.850;2023-07-22T04:40:55;6.13;;;4.33;;
19364;SDS011;9818;48.382;10.850;2023-07-22T04:43:26;5.17;;;3.90;;
19364;SDS011;9818;48.382;10.850;2023-07-22T04:45:55;4.67;;;3.83;;
19364;SDS011;9818;48.382;10.850;2023-07-22T04:48:24;5.77;;;3.80;;
19364;SDS011;9818;48.382;10.850;2023-07-22T04:50:52;5.13;;;3.77;;
19364;SDS011;9818;48.382;10.850;2023-07-22T04:53:21;4.03;;;3.63;;
19364;SDS011;9818;48.382;10.850;2023-07-22T04:55:50;7.07;;;3.47;;
19364;SDS011;9818;48.382;10.850;2023-07-22T04:58:20;5.67;;;3.57;;
19364;SDS011;9818;48.382;10.850;2023-07-22T05:00:51;4.53;;;3.47;;
19364;SDS011;9818;48.382;10.850;2023-07-22T05:03:20;6.27;;;4.23;;
19364;SDS011;9818;48.382;10.850;2023-07-22T05:05:50;3.63;;;2.87;;
19364;SDS011;9818;48.382;10.850;2023-07-22T05:08:18;6.53;;;3.93;;
19364;SDS011;9818;48.382;10.850;2023-07-22T05:10:47;5.80;;;4.33;;
19364;SDS011;9818;48.382;10.850;2023-07-22T05:13:16;5.63;;;3.33;;
19364;SDS011;9818;48.382;10.850;2023-07-22T05:15:44;4.87;;;3.57;;
19364;SDS011;9818;48.382;10.850;2023-07-22T05:18:16;4.13;;;3.60;;
19364;SDS011;9818;48.382;10.850;2023-07-22T05:20:44;6.13;;;3.63;;
19364;SDS011;9818;48.382;10.850;2023-07-22T05:23:13;3.40;;;3.07;;
19364;SDS011;9818;48.382;10.850;2023-07-22T05:25:41;5.70;;;3.87;;
19364;SDS011;9818;48.382;10.850;2023-07-22T05:28:10;5.00;;;3.13;;
19364;SDS011;9818;48.382;10.850;2023-07-22T05:30:39;6.00;;;3.50;;
19364;SDS011;9818;48.382;10.850;2023-07-22T05:33:07;5.80;;;3.60;;
19364;SDS011;9818;48.382;10.850;2023-07-22T05:35:39;4.63;;;3.37;;
19364;SDS011;9818;48.382;10.850;2023-07-22T05:38:07;5.07;;;3.67;;
19364;SDS011;9818;48.382;10.850;2023-07-22T05:40:36;3.23;;;2.93;;
19364;SDS011;9818;48.382;10.850;2023-07-22T05:43:05;3.50;;;2.90;;
19364;SDS011;9818;48.382;10.850;2023-07-22T05:45:33;4.90;;;3.00;;
19364;SDS011;9818;48.382;10.850;2023-07-22T05:48:02;4.33;;;2.90;;
19364;SDS011;9818;48.382;10.850;2023-07-22T05:50:31;4.80;;;3.20;;
19364;SDS011;9818;48.382;10.850;2023-07-22T05:53:02;4.43;;;3.00;;
19364;SDS011;9818;48.382;10.850;2023-07-22T05:55:31;6.83;;;3.07;;
19364;SDS011;9818;48.382;10.850;2023-07-22T05:58:01;4.00;;;3.00;;
19364;SDS011;9818;48.382;10.850;2023-07-22T06:00:32;4.90;;;3.13;;
19364;SDS011;9818;48.382;10.850;2023-07-22T06:03:01;4.30;;;3.10;;
19364;SDS011;9818;48.382;10.850;2023-07-22T06:05:30;4.13;;;2.97;;
19364;SDS011;9818;48.382;10.850;2023-07-22T06:07:59;4.13;;;2.87;;
19364;SDS011;9818;48.382;10.850;2023-07-22T06:10:30;4.53;;;3.00;;
19364;SDS011;9818;48.382;10.850;2023-07-22T06:12:59;4.40;;;2.97;;
19364;SDS011;9818;48.382;10.850;2023-07-22T06:15:28;5.00;;;3.10;;
19364;SDS011;9818;48.382;10.850;2023-07-22T06:17:56;4.43;;;2.83;;
19364;SDS011;9818;48.382;10.850;2023-07-22T06:20:25;6.67;;;2.77;;
19364;SDS011;9818;48.382;10.850;2023-07-22T06:22:54;3.50;;;2.90;;
19364;SDS011;9818;48.382;10.850;2023-07-22T06:25:23;4.03;;;2.80;;
19364;SDS011;9818;48.382;10.850;2023-07-22T06:27:54;4.63;;;3.30;;
19364;SDS011;9818;48.382;10.850;2023-07-22T06:30:23;5.73;;;3.30;;
19364;SDS011;9818;48.382;10.850;2023-07-22T06:32:52;3.20;;;2.70;;
19364;SDS011;9818;48.382;10.850;2023-07-22T06:35:21;4.03;;;2.50;;
19364;SDS011;9818;48.382;10.850;2023-07-22T06:37:50;3.07;;;2.70;;
19364;SDS011;9818;48.382;10.850;2023-07-22T06:40:18;3.90;;;2.53;;
19364;SDS011;9818;48.382;10.850;2023-07-22T06:42:47;3.67;;;2.63;;
19364;SDS011;9818;48.382;10.850;2023-07-22T06:45:18;3.53;;;2.70;;
19364;SDS011;9818;48.382;10.850;2023-07-22T06:47:47;4.80;;;2.70;;
19364;SDS011;9818;48.382;10.850;2023-07-22T06:50:16;4.07;;;3.10;;
19364;SDS011;9818;48.382;10.850;2023-07-22T06:52:44;4.87;;;2.43;;
19364;SDS011;9818;48.382;10.850;2023-07-22T06:55:13;5.23;;;2.43;;
19364;SDS011;9818;48.382;10.850;2023-07-22T06:57:42;6.00;;;3.03;;
19364;SDS011;9818;48.382;10.850;2023-07-22T07:00:11;7.07;;;3.30;;
19364;SDS011;9818;48.382;10.850;2023-07-22T07:02:44;4.40;;;2.80;;
19364;SDS011;9818;48.382;10.850;2023-07-22T07:05:21;3.63;;;2.70;;
19364;SDS011;9818;48.382;10.850;2023-07-22T07:07:50;5.43;;;2.73;;
19364;SDS011;9818;48.382;10.850;2023-07-22T07:10:19;4.50;;;2.70;;
19364;SDS011;9818;48.382;10.850;2023-07-22T07:12:48;4.37;;;2.80;;
19364;SDS011;9818;48.382;10.850;2023-07-22T07:15:16;4.83;;;2.83;;
19364;SDS011;9818;48.382;10.850;2023-07-22T07:17:47;4.00;;;2.70;;
19364;SDS011;9818;48.382;10.850;2023-07-22T07:20:16;3.63;;;2.40;;
19364;SDS011;9818;48.382;10.850;2023-07-22T07:22:45;6.03;;;3.33;;
19364;SDS011;9818;48.382;10.850;2023-07-22T07:25:13;3.60;;;2.80;;
19364;SDS011;9818;48.382;10.850;2023-07-22T07:27:43;4.57;;;2.80;;
19364;SDS011;9818;48.382;10.850;2023-07-22T07:30:11;2.87;;;2.10;;
19364;SDS011;9818;48.382;10.850;2023-07-22T07:32:40;5.13;;;2.43;;
19364;SDS011;9818;48.382;10.850;2023-07-22T07:35:11;3.50;;;2.70;;
19364;SDS011;9818;48.382;10.850;2023-07-22T07:37:40;3.50;;;2.20;;
19364;SDS011;9818;48.382;10.850;2023-07-22T07:40:09;2.37;;;2.13;;
19364;SDS011;9818;48.382;10.850;2023-07-22T07:42:38;3.00;;;2.20;;
19364;SDS011;9818;48.382;10.850;2023-07-22T07:45:08;3.83;;;2.30;;
19364;SDS011;9818;48.382;10.850;2023-07-22T07:47:37;2.73;;;2.00;;
19364;SDS011;9818;48.382;10.850;2023-07-22T07:50:06;2.63;;;2.03;;
19364;SDS011;9818;48.382;10.850;2023-07-22T07:52:38;2.03;;;1.83;;
19364;SDS011;9818;48.382;10.850;2023-07-22T07:55:07;3.93;;;2.10;;
19364;SDS011;9818;48.382;10.850;2023-07-22T07:57:36;2.47;;;2.20;;
19364;SDS011;9818;48.382;10.850;2023-07-22T08:00:05;2.80;;;2.23;;
19364;SDS011;9818;48.382;10.850;2023-07-22T08:02:36;3.47;;;2.33;;
19364;SDS011;9818;48.382;10.850;2023-07-22T08:05:04;2.10;;;1.87;;
19364;SDS011;9818;48.382;10.850;2023-07-22T08:07:33;3.30;;;1.90;;
19364;SDS011;9818;48.382;10.850;2023-07-22T08:10:06;2.00;;;1.60;;
19364;SDS011;9818;48.382;10.850;2023-07-22T08:12:35;2.00;;;1.80;;
19364;SDS011;9818;48.382;10.850;2023-07-22T08:15:05;3.27;;;1.90;;
19364;SDS011;9818;48.382;10.850;2023-07-22T08:17:34;2.07;;;1.77;;
19364;SDS011;9818;48.382;10.850;2023-07-22T08:20:03;1.90;;;1.70;;
19364;SDS011;9818;48.382;10.850;2023-07-22T08:22:33;3.50;;;1.70;;
19364;SDS011;9818;48.382;10.850;2023-07-22T08:25:02;2.50;;;1.90;;
19364;SDS011;9818;48.382;10.850;2023-07-22T08:27:33;3.73;;;1.83;;
19364;SDS011;9818;48.382;10.850;2023-07-22T08:30:02;2.13;;;1.67;;
19364;SDS011;9818;48.382;10.850;2023-07-22T08:32:31;2.20;;;1.80;;
19364;SDS011;9818;48.382;10.850;2023-07-22T08:35:00;2.40;;;1.43;;
19364;SDS011;9818;48.382;10.850;2023-07-22T08:37:29;3.63;;;1.63;;
19364;SDS011;9818;48.382;10.850;2023-07-22T08:39:58;2.70;;;1.57;;
19364;SDS011;9818;48.382;10.850;2023-07-22T08:42:31;1.97;;;1.70;;
19364;SDS011;9818;48.382;10.850;2023-07-22T08:45:01;1.90;;;1.67;;
19364;SDS011;9818;48.382;10.850;2023-07-22T08:47:31;2.63;;;1.73;;
19364;SDS011;9818;48.382;10.850;2023-07-22T08:50:01;3.00;;;1.83;;
19364;SDS011;9818;48.382;10.850;2023-07-22T08:52:33;1.95;;;1.75;;
19364;SDS011;9818;48.382;10.850;2023-07-22T08:55:02;3.85;;;1.98;;
19364;SDS011;9818;48.382;10.850;2023-07-22T08:57:36;2.53;;;1.95;;
19364;SDS011;9818;48.382;10.850;2023-07-22T09:00:06;2.40;;;1.48;;
19364;SDS011;9818;48.382;10.850;2023-07-22T09:02:37;4.50;;;1.83;;
19364;SDS011;9818;48.382;10.850;2023-07-22T09:05:07;2.88;;;1.83;;
19364;SDS011;9818;48.382;10.850;2023-07-22T09:07:36;3.30;;;1.77;;
19364;SDS011;9818;48.382;10.850;2023-07-22T09:10:06;3.40;;;1.63;;
19364;SDS011;9818;48.382;10.850;2023-07-22T09:12:40;2.17;;;1.52;;
19364;SDS011;9818;48.382;10.850;2023-07-22T09:15:10;3.13;;;1.63;;
19364;SDS011;9818;48.382;10.850;2023-07-22T09:17:41;4.28;;;1.63;;
19364;SDS011;9818;48.382;10.850;2023-07-22T09:20:10;2.08;;;1.50;;
19364;SDS011;9818;48.382;10.850;2023-07-22T09:22:43;1.52;;;1.42;;
19364;SDS011;9818;48.382;10.850;2023-07-22T09:25:13;2.50;;;1.70;;
19364;SDS011;9818;48.382;10.850;2023-07-22T09:27:46;2.05;;;1.30;;
19364;SDS011;9818;48.382;10.850;2023-07-22T09:30:23;2.30;;;1.40;;
19364;SDS011;9818;48.382;10.850;2023-07-22T09:32:54;2.17;;;1.40;;
19364;SDS011;9818;48.382;10.850;2023-07-22T09:35:24;1.60;;;1.30;;
19364;SDS011;9818;48.382;10.850;2023-07-22T09:37:54;1.60;;;1.42;;
19364;SDS011;9818;48.382;10.850;2023-07-22T09:40:24;1.98;;;1.40;;
19364;SDS011;9818;48.382;10.850;2023-07-22T09:42:56;3.10;;;1.60;;
19364;SDS011;9818;48.382;10.850;2023-07-22T09:45:29;1.70;;;1.40;;
19364;SDS011;9818;48.382;10.850;2023-07-22T09:47:58;1.38;;;1.20;;
19364;SDS011;9818;48.382;10.850;2023-07-22T09:50:27;1.80;;;1.50;;
19364;SDS011;9818;48.382;10.850;2023-07-22T09:52:56;2.15;;;1.60;;
19364;SDS011;9818;48.382;10.850;2023-07-22T09:55:27;2.10;;;1.52;;
19364;SDS011;9818;48.382;10.850;2023-07-22T09:58:01;2.08;;;1.23;;
19364;SDS011;9818;48.382;10.850;2023-07-22T10:00:30;2.00;;;1.40;;
19364;SDS011;9818;48.382;10.850;2023-07-22T10:03:01;1.42;;;1.30;;
19364;SDS011;9818;48.382;10.850;2023-07-22T10:05:31;2.42;;;1.20;;
19364;SDS011;9818;48.382;10.850;2023-07-22T10:08:02;1.73;;;1.40;;
19364;SDS011;9818;48.382;10.850;2023-07-22T10:10:33;1.58;;;1.40;;
19364;SDS011;9818;48.382;10.850;2023-07-22T10:13:07;2.67;;;1.35;;
19364;SDS011;9818;48.382;10.850;2023-07-22T10:15:36;1.90;;;1.48;;
19364;SDS011;9818;48.382;10.850;2023-07-22T10:18:05;2.70;;;1.60;;
19364;SDS011;9818;48.382;10.850;2023-07-22T10:20:33;5.85;;;1.67;;
19364;SDS011;9818;48.382;10.850;2023-07-22T10:23:02;2.63;;;1.50;;
19364;SDS011;9818;48.382;10.850;2023-07-22T10:25:32;1.70;;;1.50;;
19364;SDS011;9818;48.382;10.850;2023-07-22T10:28:02;2.50;;;1.33;;
19364;SDS011;9818;48.382;10.850;2023-07-22T10:30:33;2.45;;;1.40;;
19364;SDS011;9818;48.382;10.850;2023-07-22T10:33:02;2.28;;;1.45;;
19364;SDS011;9818;48.382;10.850;2023-07-22T10:35:34;2.40;;;1.48;;
19364;SDS011;9818;48.382;10.850;2023-07-22T10:38:10;1.67;;;1.30;;
19364;SDS011;9818;48.382;10.850;2023-07-22T10:40:45;2.45;;;1.23;;
19364;SDS011;9818;48.382;10.850;2023-07-22T10:43:15;2.00;;;1.40;;
19364;SDS011;9818;48.382;10.850;2023-07-22T10:45:51;1.40;;;1.25;;
19364;SDS011;9818;48.382;10.850;2023-07-22T10:48:22;3.00;;;1.80;;
19364;SDS011;9818;48.382;10.850;2023-07-22T10:50:54;2.20;;;1.30;;
19364;SDS011;9818;48.382;10.850;2023-07-22T10:53:29;2.20;;;1.52;;
19364;SDS011;9818;48.382;10.850;2023-07-22T10:56:02;2.00;;;1.50;;
19364;SDS011;9818;48.382;10.850;2023-07-22T11:01:30;2.33;;;1.73;;
19364;SDS011;9818;48.382;10.850;2023-07-22T11:06:56;1.50;;;1.40;;
19364;SDS011;9818;48.382;10.850;2023-07-22T11:09:35;2.65;;;1.40;;
19364;SDS011;9818;48.382;10.850;2023-07-22T11:12:08;1.73;;;1.50;;
19364;SDS011;9818;48.382;10.850;2023-07-22T11:14:40;2.67;;;1.58;;
19364;SDS011;9818;48.382;10.850;2023-07-22T11:17:16;1.50;;;1.30;;
19364;SDS011;9818;48.382;10.850;2023-07-22T11:19:46;2.00;;;1.40;;
19364;SDS011;9818;48.382;10.850;2023-07-22T11:22:15;2.50;;;1.45;;
19364;SDS011;9818;48.382;10.850;2023-07-22T11:24:43;1.90;;;1.70;;
19364;SDS011;9818;48.382;10.850;2023-07-22T11:27:12;1.40;;;1.25;;
19364;SDS011;9818;48.382;10.850;2023-07-22T11:29:41;1.83;;;1.60;;
19364;SDS011;9818;48.382;10.850;2023-07-22T11:32:17;2.30;;;1.38;;
19364;SDS011;9818;48.382;10.850;2023-07-22T11:34:47;3.30;;;1.70;;
19364;SDS011;9818;48.382;10.850;2023-07-22T11:37:16;1.60;;;1.45;;
19364;SDS011;9818;48.382;10.850;2023-07-22T11:39:46;1.30;;;1.20;;
19364;SDS011;9818;48.382;10.850;2023-07-22T11:42:15;1.90;;;1.40;;
19364;SDS011;9818;48.382;10.850;2023-07-22T11:44:43;1.88;;;1.55;;
19364;SDS011;9818;48.382;10.850;2023-07-22T11:47:12;4.03;;;1.52;;
19364;SDS011;9818;48.382;10.850;2023-07-22T11:49:46;3.50;;;1.50;;
19364;SDS011;9818;48.382;10.850;2023-07-22T11:52:16;2.15;;;1.60;;
19364;SDS011;9818;48.382;10.850;2023-07-22T11:54:46;1.60;;;1.33;;
19364;SDS011;9818;48.382;10.850;2023-07-22T11:57:15;3.03;;;2.10;;
19364;SDS011;9818;48.382;10.850;2023-07-22T11:59:45;1.83;;;1.63;;
19364;SDS011;9818;48.382;10.850;2023-07-22T12:02:14;1.88;;;1.42;;
19364;SDS011;9818;48.382;10.850;2023-07-22T12:04:53;1.65;;;1.50;;
19364;SDS011;9818;48.382;10.850;2023-07-22T12:07:23;2.85;;;1.70;;
19364;SDS011;9818;48.382;10.850;2023-07-22T12:09:54;2.00;;;1.58;;
19364;SDS011;9818;48.382;10.850;2023-07-22T12:12:31;1.65;;;1.52;;
19364;SDS011;9818;48.382;10.850;2023-07-22T12:15:04;1.40;;;1.30;;
19364;SDS011;9818;48.382;10.850;2023-07-22T12:17:44;1.65;;;1.55;;
19364;SDS011;9818;48.382;10.850;2023-07-22T12:20:17;1.75;;;1.48;;
19364;SDS011;9818;48.382;10.850;2023-07-22T12:22:46;1.73;;;1.60;;
19364;SDS011;9818;48.382;10.850;2023-07-22T12:25:15;2.05;;;1.70;;
19364;SDS011;9818;48.382;10.850;2023-07-22T12:27:43;2.10;;;1.90;;
19364;SDS011;9818;48.382;10.850;2023-07-22T12:30:12;2.05;;;1.73;;
19364;SDS011;9818;48.382;10.850;2023-07-22T12:32:41;2.05;;;1.85;;
19364;SDS011;9818;48.382;10.850;2023-07-22T12:35:10;2.00;;;1.52;;
19364;SDS011;9818;48.382;10.850;2023-07-22T12:37:42;1.67;;;1.50;;
19364;SDS011;9818;48.382;10.850;2023-07-22T12:40:11;3.10;;;2.00;;
19364;SDS011;9818;48.382;10.850;2023-07-22T12:42:40;1.98;;;1.77;;
19364;SDS011;9818;48.382;10.850;2023-07-22T12:45:09;1.90;;;1.60;;
19364;SDS011;9818;48.382;10.850;2023-07-22T12:47:38;2.35;;;1.85;;
19364;SDS011;9818;48.382;10.850;2023-07-22T12:50:07;1.67;;;1.55;;
19364;SDS011;9818;48.382;10.850;2023-07-22T12:52:36;2.08;;;1.80;;
19364;SDS011;9818;48.382;10.850;2023-07-22T12:55:08;3.13;;;1.73;;
19364;SDS011;9818;48.382;10.850;2023-07-22T12:57:36;2.92;;;1.80;;
19364;SDS011;9818;48.382;10.850;2023-07-22T13:00:05;2.20;;;2.00;;
19364;SDS011;9818;48.382;10.850;2023-07-22T13:02:36;1.95;;;1.67;;
19364;SDS011;9818;48.382;10.850;2023-07-22T13:05:05;1.88;;;1.50;;
19364;SDS011;9818;48.382;10.850;2023-07-22T13:07:34;2.50;;;1.75;;
19364;SDS011;9818;48.382;10.850;2023-07-22T13:10:03;1.80;;;1.70;;
19364;SDS011;9818;48.382;10.850;2023-07-22T13:12:38;2.00;;;1.80;;
19364;SDS011;9818;48.382;10.850;2023-07-22T13:15:07;1.95;;;1.80;;
19364;SDS011;9818;48.382;10.850;2023-07-22T13:17:36;2.03;;;1.70;;
19364;SDS011;9818;48.382;10.850;2023-07-22T13:20:05;2.00;;;1.55;;
19364;SDS011;9818;48.382;10.850;2023-07-22T13:22:36;4.00;;;2.00;;
19364;SDS011;9818;48.382;10.850;2023-07-22T13:25:05;1.88;;;1.50;;
19364;SDS011;9818;48.382;10.850;2023-07-22T13:27:37;2.50;;;1.80;;
19364;SDS011;9818;48.382;10.850;2023-07-22T13:30:07;1.60;;;1.48;;
19364;SDS011;9818;48.382;10.850;2023-07-22T13:32:36;2.25;;;1.80;;
19364;SDS011;9818;48.382;10.850;2023-07-22T13:35:05;2.10;;;1.90;;
19364;SDS011;9818;48.382;10.850;2023-07-22T13:37:35;4.00;;;1.80;;
19364;SDS011;9818;48.382;10.850;2023-07-22T13:40:05;1.88;;;1.70;;
19364;SDS011;9818;48.382;10.850;2023-07-22T13:42:38;3.33;;;2.00;;
19364;SDS011;9818;48.382;10.850;2023-07-22T13:45:07;3.40;;;1.95;;
19364;SDS011;9818;48.382;10.850;2023-07-22T13:47:36;1.90;;;1.60;;
19364;SDS011;9818;48.382;10.850;2023-07-22T13:50:05;2.65;;;1.80;;
19364;SDS011;9818;48.382;10.850;2023-07-22T13:52:34;1.73;;;1.60;;
19364;SDS011;9818;48.382;10.850;2023-07-22T13:55:03;2.13;;;1.60;;
19364;SDS011;9818;48.382;10.850;2023-07-22T13:57:33;1.92;;;1.67;;
19364;SDS011;9818;48.382;10.850;2023-07-22T14:00:04;2.00;;;1.77;;
19364;SDS011;9818;48.382;10.850;2023-07-22T14:02:35;3.72;;;2.08;;
19364;SDS011;9818;48.382;10.850;2023-07-22T14:05:05;2.40;;;2.03;;
19364;SDS011;9818;48.382;10.850;2023-07-22T14:07:35;2.05;;;1.70;;
19364;SDS011;9818;48.382;10.850;2023-07-22T14:10:04;2.92;;;1.73;;
19364;SDS011;9818;48.382;10.850;2023-07-22T14:12:34;3.15;;;2.13;;
19364;SDS011;9818;48.382;10.850;2023-07-22T14:15:06;2.20;;;2.00;;
19364;SDS011;9818;48.382;10.850;2023-07-22T14:17:35;3.42;;;2.10;;
19364;SDS011;9818;48.382;10.850;2023-07-22T14:20:05;2.38;;;2.03;;
19364;SDS011;9818;48.382;10.850;2023-07-22T14:22:36;3.30;;;1.92;;
19364;SDS011;9818;48.382;10.850;2023-07-22T14:25:05;2.17;;;1.98;;
19364;SDS011;9818;48.382;10.850;2023-07-22T14:27:34;2.33;;;2.05;;
19364;SDS011;9818;48.382;10.850;2023-07-22T14:30:06;2.25;;;2.00;;
19364;SDS011;9818;48.382;10.850;2023-07-22T14:32:36;2.85;;;1.95;;
19364;SDS011;9818;48.382;10.850;2023-07-22T14:35:05;2.33;;;2.13;;
19364;SDS011;9818;48.382;10.850;2023-07-22T14:37:35;2.30;;;2.10;;
19364;SDS011;9818;48.382;10.850;2023-07-22T14:40:05;2.65;;;2.17;;
19364;SDS011;9818;48.382;10.850;2023-07-22T14:42:36;3.72;;;2.55;;
19364;SDS011;9818;48.382;10.850;2023-07-22T14:45:08;3.67;;;2.40;;
19364;SDS011;9818;48.382;10.850;2023-07-22T14:47:37;2.70;;;2.30;;
19364;SDS011;9818;48.382;10.850;2023-07-22T14:50:05;5.45;;;2.50;;
19364;SDS011;9818;48.382;10.850;2023-07-22T14:52:35;3.15;;;2.42;;
19364;SDS011;9818;48.382;10.850;2023-07-22T14:55:04;2.17;;;1.98;;
19364;SDS011;9818;48.382;10.850;2023-07-22T14:57:34;2.33;;;1.95;;
19364;SDS011;9818;48.382;10.850;2023-07-22T15:00:03;2.20;;;2.00;;
19364;SDS011;9818;48.382;10.850;2023-07-22T15:02:35;2.08;;;1.88;;
19364;SDS011;9818;48.382;10.850;2023-07-22T15:05:03;2.88;;;2.20;;
19364;SDS011;9818;48.382;10.850;2023-07-22T15:07:32;3.55;;;2.80;;
19364;SDS011;9818;48.382;10.850;2023-07-22T15:10:01;3.60;;;2.55;;